Darayya, Syria
Current Conditions -  °F | °C
As of 5:00 AM on Sunday 21 Dec 2014 (Local Time) from OSDI Reporting Station
Moderate Fog Moderate Fog  
Wind Chill: 30°   Ceiling: Unl
Heat Index: 30°   Visibility: 6mi
Dew Point: 28°   Wind: 1mph
Humidity: 93%   Direction: 10°N
Pressure: 30.12"   Gusts: NA
Location:  33.43°N, 36.25°E
Report Text: OSDI 210200Z 01001KT 0100R23/0100 FG M01/M02 Q1020
Loading
Personal Weather Stations






























Interactive Weather Map New forecast layout! Learn more

10-Day Weather Forecast

Advertisements
Track Severe Weather on mobile